Time;durP1;ratioP1;P1;durP2;ratioP2;P2;SDS_P1;SDS_P2;PMS_P1;PMS_P2;Temp;Humidity;BMP_temperature;BMP_pressure;BME280_temperature;BME280_humidity;BME280_pressure;Samples;Min_cycle;Max_cycle;Signal;HPM_P1;HPM_P2
2021/10/28 00:15:09;;;;;;;28.95;17.30;;;;;;;;;;6228765;28;20057;-64
2021/10/28 00:18:14;;;;;;;29.00;17.58;;;;;;;;;;6217545;28;20049;-63
2021/10/28 00:21:15;;;;;;;27.58;17.30;;;;;;;;;;6216662;28;20046;-63
2021/10/28 00:24:17;;;;;;;27.08;17.42;;;;;;;;;;6225413;28;20038;-64
2021/10/28 00:27:19;;;;;;;26.83;17.42;;;;;;;;;;6226911;28;20496;-63
2021/10/28 00:30:21;;;;;;;25.23;18.02;;;;;;;;;;6221451;28;20119;-64
2021/10/28 00:33:23;;;;;;;28.70;18.05;;;;;;;;;;6217077;28;20092;-64
2021/10/28 00:36:24;;;;;;;28.40;19.05;;;;;;;;;;6211571;28;20136;-63
2021/10/28 00:39:26;;;;;;;25.65;17.30;;;;;;;;;;6222080;28;20048;-64
2021/10/28 00:42:28;;;;;;;30.73;17.90;;;;;;;;;;6223958;28;20037;-64
2021/10/28 00:45:31;;;;;;;26.10;17.00;;;;;;;;;;6222438;28;20049;-64
2021/10/28 00:48:33;;;;;;;27.45;17.63;;;;;;;;;;6224728;28;20065;-63
2021/10/28 00:51:34;;;;;;;28.10;17.77;;;;;;;;;;6214839;28;20746;-64
2021/10/28 00:54:36;;;;;;;24.08;17.45;;;;;;;;;;6229876;28;20045;-64
2021/10/28 00:57:37;;;;;;;30.27;18.23;;;;;;;;;;6228904;28;20136;-64
2021/10/28 01:00:40;;;;;;;27.13;18.35;;;;;;;;;;6214185;28;20127;-64
2021/10/28 01:03:42;;;;;;;26.38;17.77;;;;;;;;;;6228926;28;20041;-64
2021/10/28 01:06:44;;;;;;;28.70;17.33;;;;;;;;;;6220950;28;20085;-64
2021/10/28 01:09:46;;;;;;;26.20;17.83;;;;;;;;;;6227852;28;20132;-66
2021/10/28 01:12:47;;;;;;;27.85;18.25;;;;;;;;;;6221557;28;20374;-65
2021/10/28 01:15:50;;;;;;;24.33;17.67;;;;;;;;;;6218348;28;20061;-66
2021/10/28 01:18:51;;;;;;;25.97;17.37;;;;;;;;;;6228368;28;20054;-64
2021/10/28 01:21:54;;;;;;;24.08;17.08;;;;;;;;;;6221306;28;20116;-64
2021/10/28 01:24:56;;;;;;;24.40;16.50;;;;;;;;;;6227865;28;20037;-64
2021/10/28 01:27:57;;;;;;;24.35;16.98;;;;;;;;;;6220843;28;20102;-64
2021/10/28 01:31:01;;;;;;;24.83;17.42;;;;;;;;;;6216981;28;20038;-64
2021/10/28 01:34:04;;;;;;;27.50;16.30;;;;;;;;;;6222876;28;20429;-66
2021/10/28 01:37:07;;;;;;;24.87;17.07;;;;;;;;;;6218465;28;20995;-65
2021/10/28 01:40:09;;;;;;;23.02;16.50;;;;;;;;;;6225331;28;20053;-66
2021/10/28 01:43:10;;;;;;;22.85;16.38;;;;;;;;;;6224402;28;20081;-65
2021/10/28 01:46:12;;;;;;;31.52;16.83;;;;;;;;;;6215816;28;20561;-65
2021/10/28 01:49:20;;;;;;;26.13;16.10;;;;;;;;;;6229513;28;20132;-64
2021/10/28 01:52:23;;;;;;;26.38;17.60;;;;;;;;;;6214917;28;20091;-64
2021/10/28 01:55:25;;;;;;;24.05;16.67;;;;;;;;;;6226302;28;20033;-64
2021/10/28 01:58:26;;;;;;;25.65;16.17;;;;;;;;;;6229274;28;20052;-64
2021/10/28 02:01:28;;;;;;;24.33;15.85;;;;;;;;;;6214849;28;20140;-64
2021/10/28 02:04:29;;;;;;;27.50;18.02;;;;;;;;;;6226823;28;20053;-64
2021/10/28 02:07:32;;;;;;;32.28;17.48;;;;;;;;;;6217402;28;20045;-64
2021/10/28 02:10:33;;;;;;;28.55;17.75;;;;;;;;;;6220577;28;20061;-64
2021/10/28 02:13:35;;;;;;;25.67;17.00;;;;;;;;;;6229038;28;20505;-64
2021/10/28 02:16:36;;;;;;;26.45;17.63;;;;;;;;;;6209532;28;20111;-64
2021/10/28 02:19:37;;;;;;;26.60;16.90;;;;;;;;;;6221132;28;20087;-64
2021/10/28 02:22:41;;;;;;;25.48;17.73;;;;;;;;;;6215537;28;20173;-64
2021/10/28 02:25:42;;;;;;;27.75;17.75;;;;;;;;;;6216025;28;20042;-64
2021/10/28 02:28:44;;;;;;;25.38;16.80;;;;;;;;;;6229954;28;20045;-64
2021/10/28 02:31:46;;;;;;;24.95;16.27;;;;;;;;;;6208890;28;20065;-64
2021/10/28 02:34:48;;;;;;;27.45;16.42;;;;;;;;;;6227635;28;20548;-64
2021/10/28 02:37:51;;;;;;;27.35;15.82;;;;;;;;;;6212025;28;20133;-64
2021/10/28 02:40:52;;;;;;;25.38;16.02;;;;;;;;;;6217597;28;20046;-64
2021/10/28 02:43:53;;;;;;;25.77;16.92;;;;;;;;;;6225130;28;20044;-64
2021/10/28 02:46:55;;;;;;;22.73;16.58;;;;;;;;;;6204235;28;20123;-64
2021/10/28 02:49:56;;;;;;;27.77;16.52;;;;;;;;;;6223400;28;20042;-64
2021/10/28 02:52:59;;;;;;;24.45;16.10;;;;;;;;;;6212811;28;20132;-64
2021/10/28 02:56:00;;;;;;;24.40;16.23;;;;;;;;;;6213733;28;20050;-64
2021/10/28 02:59:02;;;;;;;26.40;16.38;;;;;;;;;;6226920;28;20140;-64
2021/10/28 03:02:03;;;;;;;25.10;16.58;;;;;;;;;;6207817;28;20049;-64
2021/10/28 03:05:05;;;;;;;27.80;16.70;;;;;;;;;;6223177;28;20180;-65
2021/10/28 03:08:08;;;;;;;24.65;16.48;;;;;;;;;;6221281;28;20188;-64
2021/10/28 03:11:09;;;;;;;27.77;16.50;;;;;;;;;;6219926;28;20576;-64
2021/10/28 03:14:13;;;;;;;24.52;16.52;;;;;;;;;;6233394;28;20167;-64
2021/10/28 03:17:27;;;;;;;22.80;16.60;;;;;;;;;;6215034;28;20049;-64
2021/10/28 03:27:10;;;;;;;23.33;15.90;;;;;;;;;;6218665;28;20057;-64
2021/10/28 03:30:12;;;;;;;30.58;17.50;;;;;;;;;;6217965;28;20187;-64
2021/10/28 03:33:17;;;;;;;28.25;16.90;;;;;;;;;;6220841;28;20180;-64
2021/10/28 03:36:27;;;;;;;27.67;17.20;;;;;;;;;;6216513;28;20060;-64
2021/10/28 03:39:45;;;;;;;29.75;17.17;;;;;;;;;;6227303;28;20130;-64
2021/10/28 03:50:01;;;;;;;26.42;17.80;;;;;;;;;;6223381;28;20474;-64
2021/10/28 03:56:57;;;;;;;28.73;18.58;;;;;;;;;;6252073;28;20090;-64
2021/10/28 04:17:16;;;;;;;25.73;18.25;;;;;;;;;;6264661;28;20080;-64
2021/10/28 04:20:46;;;;;;;27.48;17.05;;;;;;;;;;6267054;28;20078;-64
2021/10/28 04:30:27;;;;;;;28.75;19.58;;;;;;;;;;6252839;28;20040;-64
2021/10/28 04:33:28;;;;;;;29.08;18.67;;;;;;;;;;6271228;28;20340;-64
2021/10/28 04:36:30;;;;;;;29.13;18.08;;;;;;;;;;6262872;28;20563;-64
2021/10/28 04:39:31;;;;;;;31.85;18.70;;;;;;;;;;6274738;28;20044;-64
2021/10/28 04:42:33;;;;;;;23.92;17.55;;;;;;;;;;6266084;28;20179;-65
2021/10/28 04:45:35;;;;;;;32.10;19.27;;;;;;;;;;6256979;28;20386;-64
2021/10/28 04:48:38;;;;;;;32.08;19.50;;;;;;;;;;6274194;28;20044;-64
2021/10/28 04:51:39;;;;;;;30.15;19.40;;;;;;;;;;6275484;28;20064;-64
2021/10/28 04:54:42;;;;;;;29.58;19.70;;;;;;;;;;6282629;28;20048;-64
2021/10/28 04:57:43;;;;;;;30.30;19.45;;;;;;;;;;6277514;28;20045;-64
2021/10/28 05:00:46;;;;;;;32.60;20.65;;;;;;;;;;6262492;28;20127;-64
2021/10/28 05:03:47;;;;;;;34.92;21.90;;;;;;;;;;6265943;28;20118;-64
2021/10/28 05:06:49;;;;;;;30.55;19.75;;;;;;;;;;6258977;28;20488;-64
2021/10/28 05:09:50;;;;;;;33.85;22.13;;;;;;;;;;6271559;28;20158;-64
2021/10/28 05:12:51;;;;;;;35.72;21.63;;;;;;;;;;6262918;28;20111;-64
2021/10/28 05:15:54;;;;;;;32.08;21.27;;;;;;;;;;6263248;28;20052;-64
2021/10/28 05:18:56;;;;;;;31.88;20.48;;;;;;;;;;6273494;28;20044;-64
2021/10/28 05:21:57;;;;;;;32.08;21.70;;;;;;;;;;6264902;28;20407;-64
2021/10/28 05:24:59;;;;;;;31.85;21.40;;;;;;;;;;6272543;28;20063;-62
2021/10/28 05:28:00;;;;;;;35.58;22.60;;;;;;;;;;6271738;28;20159;-62
2021/10/28 05:31:03;;;;;;;30.70;21.55;;;;;;;;;;6266241;28;20115;-64
2021/10/28 05:34:05;;;;;;;33.10;20.55;;;;;;;;;;6275636;28;20041;-62
2021/10/28 05:37:06;;;;;;;30.23;20.48;;;;;;;;;;6269697;28;20054;-62
2021/10/28 05:40:08;;;;;;;31.80;21.05;;;;;;;;;;6276850;28;20428;-63
2021/10/28 05:43:10;;;;;;;32.80;21.30;;;;;;;;;;6277577;28;20091;-62
2021/10/28 05:46:13;;;;;;;34.05;20.90;;;;;;;;;;6265215;28;20078;-63
2021/10/28 05:49:15;;;;;;;32.05;21.02;;;;;;;;;;6276471;28;20139;-63
2021/10/28 05:52:16;;;;;;;32.17;20.25;;;;;;;;;;6268003;28;20049;-63
2021/10/28 05:55:19;;;;;;;33.45;21.02;;;;;;;;;;6271892;28;20053;-63
2021/10/28 05:58:20;;;;;;;29.50;20.10;;;;;;;;;;6278512;28;20044;-63
2021/10/28 06:01:23;;;;;;;29.42;19.17;;;;;;;;;;6266011;28;20036;-63
2021/10/28 06:04:25;;;;;;;30.30;20.10;;;;;;;;;;6286568;28;20098;-63
2021/10/28 06:07:26;;;;;;;28.92;19.48;;;;;;;;;;6271383;28;20036;-63
2021/10/28 06:10:28;;;;;;;27.08;18.88;;;;;;;;;;6272177;28;20060;-63
2021/10/28 06:13:29;;;;;;;34.33;19.63;;;;;;;;;;6279984;28;20131;-63
2021/10/28 06:16:37;;;;;;;28.70;18.20;;;;;;;;;;6261563;28;20044;-64
2021/10/28 06:19:39;;;;;;;34.50;19.88;;;;;;;;;;6285709;28;20447;-63
2021/10/28 06:22:41;;;;;;;26.58;19.10;;;;;;;;;;6275366;28;20491;-64
2021/10/28 06:25:42;;;;;;;30.77;19.27;;;;;;;;;;6272195;28;20100;-63
2021/10/28 06:28:44;;;;;;;27.75;19.00;;;;;;;;;;6286046;28;20051;-64
2021/10/28 06:31:48;;;;;;;29.50;19.83;;;;;;;;;;6258056;28;20045;-64
2021/10/28 06:34:51;;;;;;;28.15;18.17;;;;;;;;;;6282928;28;20051;-64
2021/10/28 06:37:52;;;;;;;29.20;19.42;;;;;;;;;;6268324;28;20045;-64
2021/10/28 06:40:53;;;;;;;34.33;20.40;;;;;;;;;;6275319;28;20041;-63
2021/10/28 06:43:55;;;;;;;34.58;18.98;;;;;;;;;;6290718;28;20045;-63
2021/10/28 06:46:59;;;;;;;31.00;18.45;;;;;;;;;;6264449;28;20465;-63
2021/10/28 06:50:06;;;;;;;28.70;19.65;;;;;;;;;;6282392;28;20045;-64
2021/10/28 06:53:12;;;;;;;32.22;20.25;;;;;;;;;;6276539;28;20041;-64
2021/10/28 06:56:36;;;;;;;32.80;19.02;;;;;;;;;;6272844;28;20049;-63
2021/10/28 07:02:57;;;;;;;32.70;19.50;;;;;;;;;;6260832;28;20041;-64
2021/10/28 07:06:03;;;;;;;29.88;18.80;;;;;;;;;;6267092;28;20060;-64
2021/10/28 07:09:16;;;;;;;27.88;17.33;;;;;;;;;;6274435;28;20045;-63
2021/10/28 07:12:22;;;;;;;28.75;17.15;;;;;;;;;;6265163;28;20411;-63
2021/10/28 07:15:28;;;;;;;27.88;18.45;;;;;;;;;;6274564;28;20085;-64
2021/10/28 07:18:42;;;;;;;32.17;18.42;;;;;;;;;;6273140;28;20048;-64
2021/10/28 07:22:07;;;;;;;30.15;18.98;;;;;;;;;;6265768;28;20048;-64
2021/10/28 07:25:32;;;;;;;27.83;18.83;;;;;;;;;;6275975;28;20392;-64
2021/10/28 07:32:26;;;;;;;25.52;17.95;;;;;;;;;;6243719;28;20049;-64
2021/10/28 07:35:50;;;;;;;24.98;17.65;;;;;;;;;;6269743;28;20197;-64
2021/10/28 08:05:47;;;;;;;26.05;17.38;;;;;;;;;;6313048;28;20043;-64
2021/10/28 08:18:59;;;;;;;22.98;15.85;;;;;;;;;;6297077;28;20708;-64
2021/10/28 08:22:04;;;;;;;24.77;16.02;;;;;;;;;;6293352;28;20044;-64
2021/10/28 08:31:35;;;;;;;24.85;16.70;;;;;;;;;;6264729;22;20042;-62
2021/10/28 08:34:39;;;;;;;20.73;16.20;;;;;;;;;;6231947;28;20188;-64
2021/10/28 08:37:44;;;;;;;23.05;16.02;;;;;;;;;;6219868;28;20053;-64
2021/10/28 08:40:46;;;;;;;21.92;15.63;;;;;;;;;;6226233;28;20046;-64
2021/10/28 08:43:48;;;;;;;25.10;15.65;;;;;;;;;;6238090;28;20041;-64
2021/10/28 08:46:50;;;;;;;21.15;15.10;;;;;;;;;;6215514;28;20046;-64
2021/10/28 08:49:56;;;;;;;19.27;15.40;;;;;;;;;;6215351;28;20057;-65
2021/10/28 08:53:16;;;;;;;23.42;15.95;;;;;;;;;;6198652;28;20050;-62
2021/10/28 08:56:28;;;;;;;21.52;14.85;;;;;;;;;;6198709;28;20046;-62
2021/10/28 08:59:45;;;;;;;20.85;16.17;;;;;;;;;;6212634;28;20050;-65
2021/10/28 09:23:52;;;;;;;19.92;15.80;;;;;;;;;;6195415;28;20490;-65
2021/10/28 09:26:41;;;;;;;21.95;16.65;;;;;;;;;;6208713;28;19913;-63
2021/10/28 09:29:49;;;;;;;22.77;17.80;;;;;;;;;;6211724;28;20046;-63
2021/10/28 09:32:52;;;;;;;20.17;16.67;;;;;;;;;;6177244;28;20085;-63
2021/10/28 09:36:15;;;;;;;21.10;15.73;;;;;;;;;;6191739;28;20080;-62
2021/10/28 09:46:17;;;;;;;23.92;17.60;;;;;;;;;;6182875;28;20521;-63
2021/10/28 09:52:38;;;;;;;23.38;19.33;;;;;;;;;;6206224;28;20049;-63
2021/10/28 09:59:07;;;;;;;25.95;19.73;;;;;;;;;;6216076;28;20141;-66
2021/10/28 10:02:14;;;;;;;27.88;20.02;;;;;;;;;;6196058;28;20069;-66
2021/10/28 10:05:18;;;;;;;22.63;19.50;;;;;;;;;;6210895;28;20046;-66
2021/10/28 10:08:19;;;;;;;23.63;19.88;;;;;;;;;;6217050;28;20068;-67
2021/10/28 10:11:24;;;;;;;28.40;21.63;;;;;;;;;;6210103;28;20107;-66
2021/10/28 10:14:27;;;;;;;26.55;20.77;;;;;;;;;;6208752;28;20069;-66
2021/10/28 10:17:30;;;;;;;28.70;21.48;;;;;;;;;;6193274;28;20631;-66
2021/10/28 10:20:40;;;;;;;24.98;21.05;;;;;;;;;;6197077;28;20210;-66
2021/10/28 10:24:03;;;;;;;25.27;20.75;;;;;;;;;;6207995;28;20054;-66
2021/10/28 11:26:07;;;;;;;26.98;20.33;;;;;;;;;;6175565;28;20041;-66
2021/10/28 11:29:25;;;;;;;25.20;21.70;;;;;;;;;;6215812;28;20053;-64
2021/10/28 11:32:45;;;;;;;141.48;106.20;;;;;;;;;;6205631;28;20184;-65
2021/10/28 12:46:15;;;;;;;22.27;19.58;;;;;;;;;;6195241;28;20050;-63
2021/10/28 12:53:09;;;;;;;26.77;21.08;;;;;;;;;;6154514;28;20604;-62
2021/10/28 12:56:39;;;;;;;23.75;19.08;;;;;;;;;;6206008;28;20054;-65
2021/10/28 13:03:35;;;;;;;26.60;20.65;;;;;;;;;;6196888;28;20502;-65
2021/10/28 13:50:04;;;;;;;25.55;18.85;;;;;;;;;;6215156;28;20081;-65
2021/10/28 13:56:50;;;;;;;28.55;17.65;;;;;;;;;;6200384;28;20138;-65
2021/10/28 14:23:16;;;;;;;29.27;17.90;;;;;;;;;;6196463;28;20073;-66
2021/10/28 15:03:26;;;;;;;25.27;19.15;;;;;;;;;;6187991;28;20119;-68
2021/10/28 15:29:47;;;;;;;26.85;18.98;;;;;;;;;;6215437;28;20485;-65
2021/10/28 15:36:15;;;;;;;40.10;24.98;;;;;;;;;;6183626;28;20037;-65
2021/10/28 15:39:26;;;;;;;33.03;22.08;;;;;;;;;;6200310;28;20137;-65
2021/10/28 15:43:02;;;;;;;33.85;23.02;;;;;;;;;;6181786;28;20050;-64
2021/10/28 15:53:21;;;;;;;35.85;24.20;;;;;;;;;;6215370;28;20110;-65
2021/10/28 15:59:57;;;;;;;32.72;22.77;;;;;;;;;;6205733;28;20045;-66
2021/10/28 16:22:57;;;;;;;38.53;24.30;;;;;;;;;;6207196;28;20080;-65
2021/10/28 16:26:01;;;;;;;34.70;22.85;;;;;;;;;;6203316;28;20053;-65
2021/10/28 16:29:06;;;;;;;33.95;23.92;;;;;;;;;;6215655;28;20049;-66
2021/10/28 16:32:08;;;;;;;34.30;23.45;;;;;;;;;;6207256;28;20077;-66
2021/10/28 16:35:09;;;;;;;42.22;25.65;;;;;;;;;;6211501;28;20050;-67
2021/10/28 16:38:12;;;;;;;38.80;23.35;;;;;;;;;;6216843;28;20091;-66
2021/10/28 16:41:14;;;;;;;33.92;23.42;;;;;;;;;;6207657;28;20522;-66
2021/10/28 16:44:16;;;;;;;37.33;24.40;;;;;;;;;;6215300;28;20139;-66
2021/10/28 16:47:17;;;;;;;35.75;24.17;;;;;;;;;;6180884;28;20138;-66
2021/10/28 16:50:18;;;;;;;39.05;24.35;;;;;;;;;;6184681;28;20149;-66
2021/10/28 16:53:21;;;;;;;42.92;25.10;;;;;;;;;;6188800;28;20627;-66
2021/10/28 16:56:23;;;;;;;37.90;24.37;;;;;;;;;;6182740;28;20046;-66
2021/10/28 16:59:25;;;;;;;39.85;25.80;;;;;;;;;;6198108;28;20046;-65
2021/10/28 17:02:26;;;;;;;39.15;25.42;;;;;;;;;;6202961;28;20041;-65
2021/10/28 17:05:27;;;;;;;42.60;26.23;;;;;;;;;;6212743;28;20140;-66
2021/10/28 17:08:30;;;;;;;41.13;25.85;;;;;;;;;;6215571;28;20129;-66
2021/10/28 17:11:32;;;;;;;38.23;25.20;;;;;;;;;;6207924;28;20050;-65
2021/10/28 17:14:33;;;;;;;41.38;25.15;;;;;;;;;;6218982;28;20073;-66
2021/10/28 17:17:35;;;;;;;39.95;25.40;;;;;;;;;;6192445;28;20099;-66
2021/10/28 17:20:37;;;;;;;40.40;25.38;;;;;;;;;;6176502;28;20055;-65
2021/10/28 17:23:42;;;;;;;42.90;25.23;;;;;;;;;;6207806;28;20042;-66
2021/10/28 17:26:43;;;;;;;43.35;25.77;;;;;;;;;;6189054;28;20049;-66
2021/10/28 17:29:45;;;;;;;39.63;25.70;;;;;;;;;;6198512;28;20413;-65
2021/10/28 17:32:46;;;;;;;40.55;25.45;;;;;;;;;;6204958;28;20053;-65
2021/10/28 17:35:47;;;;;;;40.47;24.50;;;;;;;;;;6213904;28;20084;-65
2021/10/28 17:38:50;;;;;;;43.80;25.25;;;;;;;;;;6203140;28;20186;-66
2021/10/28 17:41:52;;;;;;;43.00;25.67;;;;;;;;;;6181205;28;20042;-65
2021/10/28 17:44:56;;;;;;;40.67;25.52;;;;;;;;;;6192063;28;20422;-65
2021/10/28 17:47:58;;;;;;;46.50;25.58;;;;;;;;;;6173285;28;20042;-64
2021/10/28 17:50:59;;;;;;;44.03;25.30;;;;;;;;;;6201959;28;20625;-65
2021/10/28 17:54:03;;;;;;;41.83;25.55;;;;;;;;;;6220117;28;20052;-66
2021/10/28 17:57:04;;;;;;;42.05;25.98;;;;;;;;;;6204172;28;20085;-64
2021/10/28 18:00:07;;;;;;;41.88;24.95;;;;;;;;;;6207362;28;20046;-66
2021/10/28 18:03:09;;;;;;;41.72;25.23;;;;;;;;;;6205949;28;20144;-64
2021/10/28 18:06:11;;;;;;;42.00;24.90;;;;;;;;;;6198715;28;20136;-64
2021/10/28 18:09:13;;;;;;;41.20;24.95;;;;;;;;;;6197127;28;20054;-65
2021/10/28 18:12:15;;;;;;;42.95;25.13;;;;;;;;;;6184682;28;20068;-65
2021/10/28 18:15:16;;;;;;;43.97;25.65;;;;;;;;;;6196693;28;20096;-65
2021/10/28 18:18:17;;;;;;;45.35;25.05;;;;;;;;;;6179946;28;20432;-65
2021/10/28 18:21:19;;;;;;;44.70;25.52;;;;;;;;;;6177801;28;20046;-64
2021/10/28 18:24:22;;;;;;;42.75;26.25;;;;;;;;;;6191610;28;20053;-65
2021/10/28 18:27:24;;;;;;;46.08;25.20;;;;;;;;;;6185071;28;20136;-66
2021/10/28 18:30:28;;;;;;;43.40;25.67;;;;;;;;;;6176803;28;20141;-65
2021/10/28 18:33:29;;;;;;;40.42;26.15;;;;;;;;;;6185289;28;20188;-66
2021/10/28 18:36:31;;;;;;;49.95;27.05;;;;;;;;;;6178953;28;20166;-64
2021/10/28 18:39:35;;;;;;;45.35;26.77;;;;;;;;;;6188903;28;20160;-66
2021/10/28 18:42:36;;;;;;;48.95;26.58;;;;;;;;;;6207389;28;20064;-65
2021/10/28 18:45:38;;;;;;;46.35;27.17;;;;;;;;;;6187207;28;20611;-65
2021/10/28 18:48:40;;;;;;;47.45;26.98;;;;;;;;;;6193824;28;20520;-65
2021/10/28 18:51:43;;;;;;;43.10;26.90;;;;;;;;;;6212349;28;20065;-65
2021/10/28 18:54:47;;;;;;;46.22;26.90;;;;;;;;;;6207331;28;20046;-65
2021/10/28 18:57:48;;;;;;;47.28;27.85;;;;;;;;;;6199441;28;20073;-66
2021/10/28 19:00:50;;;;;;;47.38;26.70;;;;;;;;;;6177424;28;20042;-65
2021/10/28 19:03:53;;;;;;;43.97;27.08;;;;;;;;;;6189884;28;20069;-65
2021/10/28 19:06:55;;;;;;;44.30;26.57;;;;;;;;;;6181653;28;20046;-65
2021/10/28 19:09:58;;;;;;;49.58;26.65;;;;;;;;;;6196121;28;20050;-65
2021/10/28 19:13:01;;;;;;;47.10;28.38;;;;;;;;;;6180454;28;20478;-65
2021/10/28 19:16:02;;;;;;;43.40;26.60;;;;;;;;;;6179035;28;20042;-66
2021/10/28 19:19:04;;;;;;;48.03;26.80;;;;;;;;;;6199677;28;20078;-65
2021/10/28 19:22:05;;;;;;;48.92;28.05;;;;;;;;;;6185868;28;20521;-66
2021/10/28 19:25:08;;;;;;;46.83;28.30;;;;;;;;;;6187381;28;20433;-66
2021/10/28 19:28:10;;;;;;;55.40;30.40;;;;;;;;;;6207375;28;20038;-65
2021/10/28 19:31:14;;;;;;;49.35;29.92;;;;;;;;;;6197882;28;20559;-65
2021/10/28 19:34:16;;;;;;;;;;;;;;;;;;6211747;28;20072;-65
2021/10/28 19:37:21;;;;;;;51.72;30.27;;;;;;;;;;6209177;28;20056;-65
2021/10/28 19:40:33;;;;;;;53.30;29.67;;;;;;;;;;6192589;28;20042;-66
2021/10/28 19:46:53;;;;;;;50.78;29.50;;;;;;;;;;6188736;28;20446;-65
2021/10/28 19:49:54;;;;;;;49.50;28.30;;;;;;;;;;6205869;28;20096;-66
2021/10/28 19:52:56;;;;;;;49.00;30.48;;;;;;;;;;6195119;28;20124;-65
2021/10/28 19:56:08;;;;;;;51.25;31.05;;;;;;;;;;6201925;28;20042;-65
2021/10/28 19:59:12;;;;;;;51.70;29.75;;;;;;;;;;6189697;28;20046;-66
2021/10/28 20:02:18;;;;;;;;;;;;;;;;;;6171417;28;20109;-67
2021/10/28 20:15:29;;;;;;;46.92;30.25;;;;;;;;;;6186259;28;20153;-67
2021/10/28 20:21:49;;;;;;;49.67;28.50;;;;;;;;;;6185004;28;20498;-65
2021/10/28 20:24:50;;;;;;;50.92;29.58;;;;;;;;;;6213063;28;20515;-66
2021/10/28 20:27:54;;;;;;;50.33;30.20;;;;;;;;;;6188040;28;20117;-65
2021/10/28 20:30:58;;;;;;;49.37;29.50;;;;;;;;;;6176115;28;20073;-66
2021/10/28 20:34:12;;;;;;;50.53;30.23;;;;;;;;;;6185758;28;20856;-65
2021/10/28 20:37:13;;;;;;;45.20;29.75;;;;;;;;;;6175312;28;20434;-64
2021/10/28 20:40:16;;;;;;;48.58;28.65;;;;;;;;;;6184434;28;20406;-66
2021/10/28 20:43:19;;;;;;;49.90;29.92;;;;;;;;;;6208718;28;20057;-65
2021/10/28 20:46:21;;;;;;;47.30;29.55;;;;;;;;;;6199446;28;20485;-65
2021/10/28 20:49:23;;;;;;;50.17;30.50;;;;;;;;;;6212386;28;20134;-65
2021/10/28 20:52:25;;;;;;;51.15;30.15;;;;;;;;;;6173684;28;20058;-63
2021/10/28 20:55:26;;;;;;;47.80;28.80;;;;;;;;;;6179743;28;20096;-64
2021/10/28 20:58:29;;;;;;;45.80;28.75;;;;;;;;;;6201144;28;20394;-64
2021/10/28 21:01:30;;;;;;;47.60;29.77;;;;;;;;;;6203364;28;20064;-65
2021/10/28 21:04:32;;;;;;;48.40;28.70;;;;;;;;;;6212348;28;20050;-64
2021/10/28 21:07:33;;;;;;;53.65;30.67;;;;;;;;;;6184560;28;20398;-63
2021/10/28 21:10:34;;;;;;;49.80;30.95;;;;;;;;;;6195985;28;20147;-64
2021/10/28 21:13:37;;;;;;;47.47;28.73;;;;;;;;;;6220550;28;20153;-64
2021/10/28 21:16:38;;;;;;;48.97;30.00;;;;;;;;;;6183720;28;20097;-64
2021/10/28 21:19:40;;;;;;;46.63;28.38;;;;;;;;;;6213368;28;20524;-64
2021/10/28 21:22:41;;;;;;;47.35;29.85;;;;;;;;;;6193041;28;20046;-64
2021/10/28 21:25:43;;;;;;;50.47;29.73;;;;;;;;;;6180384;28;20100;-64
2021/10/28 21:28:46;;;;;;;46.45;29.83;;;;;;;;;;6193346;28;20060;-65
2021/10/28 21:31:47;;;;;;;47.80;30.30;;;;;;;;;;6173656;28;20132;-65
2021/10/28 21:34:49;;;;;;;45.40;28.58;;;;;;;;;;6188341;28;20042;-65
2021/10/28 21:37:51;;;;;;;48.50;29.98;;;;;;;;;;6179135;28;20378;-66
2021/10/28 21:40:52;;;;;;;48.25;29.50;;;;;;;;;;6182166;28;20200;-65
2021/10/28 21:43:55;;;;;;;50.42;30.27;;;;;;;;;;6189438;28;20042;-64
2021/10/28 21:46:57;;;;;;;47.30;29.73;;;;;;;;;;6169035;28;20156;-64
2021/10/28 21:49:59;;;;;;;45.55;29.83;;;;;;;;;;6189688;28;20141;-64
2021/10/28 21:53:06;;;;;;;48.85;30.13;;;;;;;;;;6184240;28;20137;-65
2021/10/28 21:56:14;;;;;;;48.53;30.20;;;;;;;;;;6181434;28;20046;-65
2021/10/28 21:59:35;;;;;;;47.47;31.55;;;;;;;;;;6193733;28;20053;-63
2021/10/28 22:25:49;;;;;;;48.78;30.60;;;;;;;;;;6180643;28;21025;-66
2021/10/28 22:28:51;;;;;;;49.08;30.73;;;;;;;;;;6192199;28;20494;-67
2021/10/28 22:31:54;;;;;;;47.08;29.67;;;;;;;;;;6185731;28;20168;-66
2021/10/28 22:34:57;;;;;;;51.15;31.55;;;;;;;;;;6201554;28;20101;-67
2021/10/28 22:38:01;;;;;;;48.55;30.60;;;;;;;;;;6178486;28;20109;-67
2021/10/28 22:41:03;;;;;;;52.60;29.98;;;;;;;;;;6184566;28;20490;-67
2021/10/28 22:44:05;;;;;;;47.47;30.30;;;;;;;;;;6194890;28;20073;-66
2021/10/28 22:47:08;;;;;;;53.60;32.58;;;;;;;;;;6167330;28;20727;-66
2021/10/28 22:50:11;;;;;;;53.25;31.20;;;;;;;;;;6180179;28;20101;-68
2021/10/28 22:53:13;;;;;;;49.75;30.65;;;;;;;;;;6198988;28;20501;-66
2021/10/28 22:56:14;;;;;;;48.58;30.75;;;;;;;;;;6206174;28;20127;-67
2021/10/28 22:59:15;;;;;;;48.17;30.02;;;;;;;;;;6214354;28;20089;-66
2021/10/28 23:02:30;;;;;;;50.88;30.55;;;;;;;;;;6192423;28;20133;-66
2021/10/28 23:05:54;;;;;;;52.30;31.85;;;;;;;;;;6204678;28;20045;-67
2021/10/28 23:12:52;;;;;;;47.33;30.45;;;;;;;;;;6201644;28;20114;-65
2021/10/28 23:22:32;;;;;;;50.72;30.55;;;;;;;;;;6201991;28;20666;-66
2021/10/28 23:25:33;;;;;;;50.53;30.42;;;;;;;;;;6206553;28;20060;-65
2021/10/28 23:28:34;;;;;;;50.53;29.40;;;;;;;;;;6213664;28;20128;-65
2021/10/28 23:31:36;;;;;;;46.95;29.08;;;;;;;;;;6183633;28;20528;-65
2021/10/28 23:34:38;;;;;;;45.05;28.48;;;;;;;;;;6198414;28;20064;-65
2021/10/28 23:37:40;;;;;;;49.08;30.48;;;;;;;;;;6182395;28;20089;-65
2021/10/28 23:40:41;;;;;;;44.85;27.90;;;;;;;;;;6185853;28;20053;-65
2021/10/28 23:43:43;;;;;;;43.92;29.15;;;;;;;;;;6202235;28;20165;-65
2021/10/28 23:46:44;;;;;;;46.90;29.20;;;;;;;;;;6185770;28;20050;-65
2021/10/28 23:49:47;;;;;;;44.58;27.80;;;;;;;;;;6184195;28;20050;-65
2021/10/28 23:52:48;;;;;;;44.92;28.52;;;;;;;;;;6180949;28;20050;-65
2021/10/28 23:55:49;;;;;;;42.22;27.25;;;;;;;;;;6185397;28;20192;-65
2021/10/28 23:58:51;;;;;;;40.72;27.00;;;;;;;;;;6190875;28;20065;-65
